createdAt,value
2018-03-03T00:00:03.313Z,72.4
2018-03-03T00:00:23.573Z,72
2018-03-03T00:00:43.871Z,72.5
2018-03-03T00:01:04.174Z,72.5
2018-03-03T00:01:24.473Z,72.5
2018-03-03T00:01:44.809Z,72.7
2018-03-03T00:02:05.084Z,72.5
2018-03-03T00:02:25.464Z,72.6
2018-03-03T00:02:45.761Z,72.5
2018-03-03T00:03:06.058Z,72.2
2018-03-03T00:03:26.414Z,72.7
2018-03-03T00:03:46.719Z,72.6
2018-03-03T00:04:07.058Z,72.8
2018-03-03T00:04:27.359Z,72.6
2018-03-03T00:04:47.668Z,72.6
2018-03-03T00:05:08.051Z,72.4
2018-03-03T00:05:28.417Z,72.5
2018-03-03T00:05:48.763Z,72.4
2018-03-03T00:06:09.152Z,72.5
2018-03-03T00:06:29.581Z,72.4
2018-03-03T00:06:49.906Z,72.5
2018-03-03T00:07:10.336Z,72.4
2018-03-03T00:07:30.693Z,72.6
2018-03-03T00:07:51.026Z,72.7
2018-03-03T00:08:11.300Z,72.4
2018-03-03T00:08:31.624Z,72.8
2018-03-03T00:08:52.034Z,72.5
2018-03-03T00:09:12.345Z,72.7
2018-03-03T00:09:32.780Z,72.4
2018-03-03T00:09:53.179Z,72.6
2018-03-03T00:10:13.530Z,72.6
2018-03-03T00:10:33.882Z,72.5
2018-03-03T00:10:54.243Z,72.5
2018-03-03T00:11:14.571Z,72.5
2018-03-03T00:11:34.921Z,72.5
2018-03-03T00:11:55.318Z,72.5
2018-03-03T00:12:15.625Z,72.5
2018-03-03T00:12:35.889Z,72.5
2018-03-03T00:12:56.339Z,72.5
2018-03-03T00:13:16.649Z,72.5
2018-03-03T00:13:56.529Z,72.3
2018-03-03T00:14:16.892Z,72.5
2018-03-03T00:14:37.196Z,72.5
2018-03-03T00:14:57.568Z,72.5
2018-03-03T00:15:18.009Z,72.5
2018-03-03T00:15:38.391Z,72.4
2018-03-03T00:15:58.690Z,72.4
2018-03-03T00:16:19.065Z,72.5
2018-03-03T00:16:39.398Z,72.5
2018-03-03T00:16:59.650Z,72.5
2018-03-03T00:17:19.999Z,72.5
2018-03-03T00:17:40.357Z,72.7
2018-03-03T00:18:00.770Z,72.7
2018-03-03T00:18:21.224Z,72.9
2018-03-03T00:18:41.578Z,73
2018-03-03T00:19:01.902Z,73.8
2018-03-03T00:19:22.251Z,73.6
2018-03-03T00:19:42.705Z,73.6
2018-03-03T00:20:03.152Z,73.9
2018-03-03T00:20:23.591Z,74.2
2018-03-03T00:20:43.988Z,74.3
2018-03-03T00:21:04.343Z,74.6
2018-03-03T00:21:24.759Z,74.5
2018-03-03T00:21:45.115Z,74.8
2018-03-03T00:22:05.448Z,75
2018-03-03T00:22:25.760Z,75.4
2018-03-03T00:22:46.176Z,75.5
2018-03-03T00:23:06.478Z,75.7
2018-03-03T00:23:26.812Z,75.3
2018-03-03T00:23:47.142Z,75.2
2018-03-03T00:24:07.468Z,75.6
2018-03-03T00:24:27.855Z,75.4
2018-03-03T00:24:48.395Z,75.2
2018-03-03T00:25:08.710Z,74.9
2018-03-03T00:25:29.098Z,75
2018-03-03T00:25:49.351Z,74.8
2018-03-03T00:26:09.729Z,75.2
2018-03-03T00:26:30.080Z,75.3
2018-03-03T00:26:50.416Z,75.6
2018-03-03T00:27:10.722Z,75.3
2018-03-03T00:27:31.124Z,75.3
2018-03-03T00:27:51.446Z,75.2
2018-03-03T00:28:11.782Z,75.1
2018-03-03T00:28:32.045Z,75
2018-03-03T00:28:52.341Z,75.1
2018-03-03T00:29:12.616Z,75
2018-03-03T00:29:32.990Z,75.4
2018-03-03T00:29:53.294Z,75.2
2018-03-03T00:30:13.547Z,75.1
2018-03-03T00:30:33.933Z,75.1
2018-03-03T00:30:54.291Z,75
2018-03-03T00:31:14.648Z,75
2018-03-03T00:31:34.946Z,75
2018-03-03T00:31:55.331Z,75
2018-03-03T00:32:15.701Z,75
2018-03-03T00:32:36.114Z,74.9
2018-03-03T00:32:56.491Z,75.4
2018-03-03T00:33:16.883Z,75.4
2018-03-03T00:33:37.196Z,75.4
2018-03-03T00:33:57.563Z,75.7
2018-03-03T00:34:17.870Z,75.6
2018-03-03T00:34:38.102Z,75.7
2018-03-03T00:34:58.406Z,75.8
2018-03-03T00:35:18.748Z,75.7
2018-03-03T00:35:39.088Z,75.6
2018-03-03T00:35:59.465Z,75.1
2018-03-03T00:36:19.925Z,75.1
2018-03-03T00:36:40.306Z,75.5
2018-03-03T00:37:00.736Z,75.5
2018-03-03T00:37:21.054Z,75.5
2018-03-03T00:37:41.421Z,75.3
2018-03-03T00:38:01.777Z,75.5
2018-03-03T00:38:22.085Z,75.3
2018-03-03T00:38:42.436Z,75.3
2018-03-03T00:39:02.768Z,75.7
2018-03-03T00:39:23.099Z,75.3
2018-03-03T00:39:43.447Z,75.2
2018-03-03T00:40:03.835Z,75.8
2018-03-03T00:40:24.179Z,75.5
2018-03-03T00:40:44.492Z,75.3
2018-03-03T00:41:04.996Z,75.3
2018-03-03T00:41:25.220Z,75.7
2018-03-03T00:41:45.592Z,75.4
2018-03-03T00:42:05.934Z,75.2
2018-03-03T00:42:26.337Z,75.3
2018-03-03T00:42:46.763Z,75
2018-03-03T00:43:07.076Z,75
2018-03-03T00:43:27.394Z,75
2018-03-03T00:43:47.704Z,74.4
2018-03-03T00:44:08.158Z,74.6
2018-03-03T00:44:28.498Z,74.3
2018-03-03T00:44:48.917Z,74.5
2018-03-03T00:45:09.337Z,74.5
2018-03-03T00:45:29.695Z,74.4
2018-03-03T00:45:50.037Z,74.5
2018-03-03T00:46:10.318Z,74.5
2018-03-03T00:46:30.748Z,74.5
2018-03-03T00:46:51.147Z,75.2
2018-03-03T00:47:11.459Z,75
2018-03-03T00:47:31.726Z,75.1
2018-03-03T00:47:52.032Z,74.8
2018-03-03T00:48:12.371Z,74.9
2018-03-03T00:48:32.744Z,75.1
2018-03-03T00:48:53.032Z,75.1
2018-03-03T00:49:13.349Z,75.3
2018-03-03T00:49:33.737Z,75.3
2018-03-03T00:49:54.137Z,75.5
2018-03-03T00:50:14.502Z,75.4
2018-03-03T00:50:34.926Z,75.5
2018-03-03T00:50:55.319Z,75.3
2018-03-03T00:51:15.787Z,75.3
2018-03-03T00:51:36.070Z,75.8
2018-03-03T00:51:56.416Z,75.5
2018-03-03T00:52:16.682Z,75.9
2018-03-03T00:52:37.005Z,75.8
2018-03-03T00:52:57.404Z,75.7
2018-03-03T00:53:17.775Z,75.5
2018-03-03T00:53:38.188Z,76.6
2018-03-03T00:53:58.496Z,76.4
2018-03-03T00:54:18.920Z,76.2
2018-03-03T00:54:39.231Z,76.3
2018-03-03T00:54:59.555Z,76.1
2018-03-03T00:55:19.865Z,76.1
2018-03-03T00:55:40.162Z,76.3
2018-03-03T00:56:00.520Z,76.1
2018-03-03T00:56:20.925Z,76.1
2018-03-03T00:56:41.228Z,76.1
2018-03-03T00:57:01.612Z,76.2
2018-03-03T00:57:21.949Z,76.2
2018-03-03T00:57:42.261Z,76.2
2018-03-03T00:58:02.565Z,76.3
2018-03-03T00:58:22.890Z,76.3
2018-03-03T00:58:43.288Z,76.1
2018-03-03T00:59:03.615Z,76.2
2018-03-03T00:59:23.977Z,76
2018-03-03T00:59:44.402Z,76.1
2018-03-03T01:00:04.718Z,76.1
2018-03-03T01:00:25.158Z,76.1
2018-03-03T01:00:45.447Z,76.2
2018-03-03T01:01:05.793Z,76.2
2018-03-03T01:01:26.107Z,76.3
2018-03-03T01:01:46.452Z,76.2
2018-03-03T01:02:06.741Z,76.4
2018-03-03T01:02:27.060Z,75.7
2018-03-03T01:02:47.375Z,75.7
2018-03-03T01:03:07.704Z,75.6
2018-03-03T01:03:28.024Z,75.7
2018-03-03T01:03:48.402Z,75.8
2018-03-03T01:04:08.804Z,75.7
2018-03-03T01:04:29.140Z,75.7
2018-03-03T01:04:49.438Z,75.8
2018-03-03T01:05:09.724Z,75.7
2018-03-03T01:05:30.048Z,75.7
2018-03-03T01:05:50.480Z,75.8
2018-03-03T01:06:10.854Z,75.7
2018-03-03T01:06:31.127Z,75.8
2018-03-03T01:06:51.483Z,75.6
2018-03-03T01:07:11.756Z,75.5
2018-03-03T01:07:32.144Z,75.9
2018-03-03T01:07:52.466Z,75.9
2018-03-03T01:08:12.756Z,75.8
2018-03-03T01:08:33.134Z,75.8
2018-03-03T01:08:53.490Z,75.8
2018-03-03T01:09:13.844Z,75.9
2018-03-03T01:09:34.493Z,76.1
2018-03-03T01:09:54.875Z,75.9
2018-03-03T01:10:15.146Z,75.7
2018-03-03T01:10:35.454Z,75.8
2018-03-03T01:10:55.840Z,75.9
2018-03-03T01:11:16.200Z,76.5
2018-03-03T01:11:36.490Z,76.2
2018-03-03T01:11:56.891Z,76.2
2018-03-03T01:12:17.160Z,76.3
2018-03-03T01:12:37.416Z,76
2018-03-03T01:12:57.775Z,76
2018-03-03T01:13:18.173Z,75.9
2018-03-03T01:13:38.520Z,76.9
2018-03-03T01:13:58.767Z,76.5
2018-03-03T01:14:19.190Z,76.7
2018-03-03T01:14:39.559Z,76.7
2018-03-03T01:15:00.005Z,76.7
2018-03-03T01:15:20.331Z,76.8
2018-03-03T01:15:40.663Z,76.4
2018-03-03T01:16:01.035Z,76.6
2018-03-03T01:16:21.388Z,76.3
2018-03-03T01:16:41.796Z,76.3
2018-03-03T01:17:02.344Z,76.9
2018-03-03T01:17:22.783Z,77.1
2018-03-03T01:17:43.152Z,76.4
2018-03-03T01:18:03.583Z,76.5
2018-03-03T01:18:23.969Z,76.7
2018-03-03T01:18:44.271Z,76.5
2018-03-03T01:19:04.924Z,76.4
2018-03-03T01:19:25.257Z,76.7
2018-03-03T01:19:45.632Z,76.7
2018-03-03T01:20:06.093Z,76.7
2018-03-03T01:20:26.561Z,76.8
2018-03-03T01:20:46.880Z,76.9
2018-03-03T01:21:07.280Z,76.9
2018-03-03T01:21:27.588Z,76.8
2018-03-03T01:21:47.915Z,76.8
2018-03-03T01:22:08.296Z,76.5
2018-03-03T01:22:28.550Z,76.7
2018-03-03T01:22:48.955Z,76.5
2018-03-03T01:23:09.322Z,76.6
2018-03-03T01:23:29.697Z,76.5
2018-03-03T01:23:50.017Z,76.4
2018-03-03T01:24:10.381Z,76.3
2018-03-03T01:24:30.676Z,76.5
2018-03-03T01:24:51.128Z,76.3
2018-03-03T01:25:11.526Z,76.9
2018-03-03T01:25:31.959Z,76.8
2018-03-03T01:25:52.298Z,76.9
2018-03-03T01:26:12.728Z,77
2018-03-03T01:26:33.132Z,76.7
2018-03-03T01:26:53.533Z,76.9
2018-03-03T01:27:13.896Z,76.6
2018-03-03T01:27:34.176Z,76.9
2018-03-03T01:27:54.628Z,77.2
2018-03-03T01:28:15.046Z,77.2
2018-03-03T01:28:35.359Z,77.1
2018-03-03T01:28:55.685Z,77
2018-03-03T01:29:16.117Z,77
2018-03-03T01:29:36.820Z,76.9
2018-03-03T01:29:57.225Z,77.1
2018-03-03T01:30:17.552Z,76.9
2018-03-03T01:30:37.951Z,76.9
2018-03-03T01:30:58.472Z,76.8
2018-03-03T01:31:18.720Z,77
2018-03-03T01:31:39.005Z,77.1
2018-03-03T01:31:59.365Z,77
2018-03-03T01:32:19.739Z,76.6
2018-03-03T01:32:40.086Z,77.6
2018-03-03T01:33:00.422Z,77.6
2018-03-03T01:33:20.757Z,77
2018-03-03T01:33:41.920Z,77.2
2018-03-03T01:34:02.186Z,77.6
2018-03-03T01:34:22.573Z,77.4
2018-03-03T01:34:42.925Z,77.4
2018-03-03T01:35:03.237Z,77.4
2018-03-03T01:35:23.557Z,77.3
2018-03-03T01:35:43.980Z,77.4
2018-03-03T01:36:04.364Z,77.4
2018-03-03T01:36:24.804Z,77.7
2018-03-03T01:36:45.380Z,77.4
2018-03-03T01:37:05.698Z,77.5
2018-03-03T01:37:25.978Z,77.4
2018-03-03T01:37:46.345Z,77.8
2018-03-03T01:38:06.656Z,77.7
2018-03-03T01:38:26.969Z,77.6
2018-03-03T01:38:47.320Z,77.8
2018-03-03T01:39:07.723Z,77.7
2018-03-03T01:39:28.049Z,77.6
2018-03-03T01:39:48.320Z,77.8
2018-03-03T01:40:08.675Z,77.4
2018-03-03T01:40:29.020Z,77.6
2018-03-03T01:40:49.415Z,77.4
2018-03-03T01:41:09.779Z,77.4
2018-03-03T01:41:30.198Z,77.9
2018-03-03T01:41:50.454Z,77.8
2018-03-03T01:42:10.872Z,77.7
2018-03-03T01:42:31.259Z,77.5
2018-03-03T01:42:51.625Z,77.8
2018-03-03T01:43:12.250Z,77.8
2018-03-03T01:43:32.681Z,77.6
2018-03-03T01:43:53.006Z,77.6
2018-03-03T01:44:13.389Z,77.7
2018-03-03T01:44:33.762Z,77.7
2018-03-03T01:44:54.009Z,77.7
2018-03-03T01:45:14.370Z,77.8
2018-03-03T01:45:34.814Z,77.6
2018-03-03T01:45:55.076Z,77.8
2018-03-03T01:46:15.451Z,77.8
2018-03-03T01:46:35.770Z,77.8
2018-03-03T01:46:56.043Z,77.4
2018-03-03T01:47:16.432Z,77.5
2018-03-03T01:47:36.920Z,77.6
2018-03-03T01:47:57.126Z,77.7
2018-03-03T01:48:17.474Z,77.7
2018-03-03T01:48:37.887Z,77.8
2018-03-03T01:48:58.193Z,77.7
2018-03-03T01:49:18.590Z,77.6
2018-03-03T01:49:38.941Z,77.8
2018-03-03T01:49:59.500Z,77.7
2018-03-03T01:50:19.780Z,77.8
2018-03-03T01:50:40.084Z,77.6
2018-03-03T01:51:00.516Z,77.6
2018-03-03T01:51:20.788Z,77.7
2018-03-03T01:51:41.053Z,77.5
2018-03-03T01:52:01.477Z,77.6
2018-03-03T01:52:21.766Z,78.1
2018-03-03T01:52:42.081Z,78.2
2018-03-03T01:53:02.421Z,77.9
2018-03-03T01:53:22.718Z,77.7
2018-03-03T01:53:43.061Z,77.9
2018-03-03T01:54:03.407Z,78
2018-03-03T01:54:23.755Z,77.9
2018-03-03T01:54:44.105Z,77.9
2018-03-03T01:55:04.443Z,77.8
2018-03-03T01:55:24.792Z,78.2
2018-03-03T01:55:45.144Z,77.8
2018-03-03T01:56:05.649Z,78.1
2018-03-03T01:56:25.958Z,78.1
2018-03-03T01:56:46.346Z,78
2018-03-03T01:57:06.676Z,78.1
2018-03-03T01:57:26.953Z,78
2018-03-03T01:57:47.226Z,78.2
2018-03-03T01:58:07.683Z,77.9
2018-03-03T01:58:27.969Z,78
2018-03-03T01:58:48.346Z,78.1
2018-03-03T01:59:08.673Z,77.3
2018-03-03T01:59:29.090Z,77.4
2018-03-03T01:59:49.391Z,77.6
2018-03-03T02:00:09.754Z,77.6
2018-03-03T02:00:30.268Z,77.5
2018-03-03T02:00:50.699Z,77.9
2018-03-03T02:01:11.075Z,77.6
2018-03-03T02:01:31.538Z,77.8
2018-03-03T02:01:52.061Z,78
2018-03-03T02:02:12.219Z,77.7
2018-03-03T02:02:32.624Z,77.6
2018-03-03T02:02:53.209Z,78
2018-03-03T02:03:13.765Z,77.6
2018-03-03T02:03:34.336Z,77.3
2018-03-03T02:03:54.875Z,78.1
2018-03-03T02:04:15.277Z,77.9
2018-03-03T02:04:35.840Z,77.9
2018-03-03T02:04:56.192Z,78.1
2018-03-03T02:05:16.683Z,78.1
2018-03-03T02:05:37.128Z,77.8
2018-03-03T02:05:57.871Z,78
2018-03-03T02:06:18.580Z,78.1
2018-03-03T02:06:39.204Z,77.9
2018-03-03T02:06:59.827Z,77.8
2018-03-03T02:07:20.558Z,78.2
2018-03-03T02:07:41.375Z,77.8
2018-03-03T02:08:01.728Z,77.8
2018-03-03T02:08:22.251Z,77.7
2018-03-03T02:08:42.932Z,77.8
2018-03-03T02:09:03.601Z,77.9
2018-03-03T02:09:24.278Z,78.2
2018-03-03T02:09:44.782Z,77.8
2018-03-03T02:10:05.326Z,78.2
2018-03-03T02:10:25.800Z,78.4
2018-03-03T02:10:46.274Z,78.4
2018-03-03T02:11:06.768Z,78.4
2018-03-03T02:11:27.155Z,78.3
2018-03-03T02:11:48.521Z,78.2
2018-03-03T02:12:08.817Z,78.4
2018-03-03T02:12:29.320Z,78.8
2018-03-03T02:12:49.572Z,78.4
2018-03-03T02:13:10.047Z,78.5
2018-03-03T02:13:30.495Z,78.7
2018-03-03T02:13:50.920Z,78.6
2018-03-03T02:14:11.354Z,78.6
2018-03-03T02:14:31.894Z,78.8
2018-03-03T02:14:52.328Z,78.8
2018-03-03T02:15:13.052Z,79
2018-03-03T02:15:33.659Z,79.2
2018-03-03T02:15:54.354Z,79.1
2018-03-03T02:16:14.829Z,79.2
2018-03-03T02:16:35.266Z,79.1
2018-03-03T02:16:55.658Z,79.1
2018-03-03T02:17:16.005Z,79.3
2018-03-03T02:17:36.271Z,79
2018-03-03T02:17:56.579Z,79.1
2018-03-03T02:18:16.892Z,79.3
2018-03-03T02:18:37.339Z,79.1
2018-03-03T02:18:57.723Z,79.5
2018-03-03T02:19:18.052Z,79.5
2018-03-03T02:19:38.356Z,79.1
2018-03-03T02:19:58.739Z,78.8
2018-03-03T02:20:19.103Z,79.4
2018-03-03T02:20:39.477Z,79.4
2018-03-03T02:20:59.898Z,79.8
2018-03-03T02:21:20.232Z,79.5
2018-03-03T02:21:40.541Z,79.6
2018-03-03T02:22:00.905Z,79.9
2018-03-03T02:22:21.195Z,79.8
2018-03-03T02:22:41.473Z,79.7
2018-03-03T02:23:01.852Z,79.7
2018-03-03T02:23:22.397Z,79.8
2018-03-03T02:23:42.804Z,79.9
2018-03-03T02:24:03.228Z,79.8
2018-03-03T02:24:23.670Z,79.7
2018-03-03T02:24:44.213Z,79.8
2018-03-03T02:25:04.630Z,79.9
2018-03-03T02:25:25.160Z,80
2018-03-03T02:25:45.596Z,80
2018-03-03T02:26:06.055Z,79.7
2018-03-03T02:26:26.452Z,80.3
2018-03-03T02:26:46.854Z,80.3
2018-03-03T02:27:07.239Z,80.2
2018-03-03T02:27:27.579Z,80.1
2018-03-03T02:27:48.014Z,80.1
2018-03-03T02:28:08.337Z,80.1
2018-03-03T02:28:28.812Z,79.9
2018-03-03T02:28:49.171Z,79.8
2018-03-03T02:29:09.475Z,79.8
2018-03-03T02:29:29.716Z,79.9
2018-03-03T02:29:50.093Z,79.8
2018-03-03T02:30:10.441Z,79.9
2018-03-03T02:30:30.830Z,80.5
2018-03-03T02:30:51.211Z,79.9
2018-03-03T02:31:11.625Z,80.2
2018-03-03T02:31:32.147Z,80.3
2018-03-03T02:31:52.445Z,80.8
2018-03-03T02:32:12.815Z,80.4
2018-03-03T02:32:33.247Z,80.4
2018-03-03T02:32:53.664Z,80.4
2018-03-03T02:33:14.176Z,80.9
2018-03-03T02:33:34.727Z,80.6
2018-03-03T02:33:55.123Z,80.1
2018-03-03T02:34:15.524Z,80.1
2018-03-03T02:34:35.896Z,80.3
2018-03-03T02:34:56.203Z,80.4
2018-03-03T02:35:16.602Z,80.2
2018-03-03T02:35:36.926Z,80.4
2018-03-03T02:35:57.340Z,80.8
2018-03-03T02:36:17.803Z,80.6
2018-03-03T02:36:38.166Z,80.1
2018-03-03T02:36:58.608Z,80.1
2018-03-03T02:37:18.996Z,80.7
2018-03-03T02:37:39.421Z,80.6
2018-03-03T02:37:59.685Z,80.2
2018-03-03T02:38:19.978Z,80.2
2018-03-03T02:38:40.497Z,80.1
2018-03-03T02:39:00.888Z,80
2018-03-03T02:39:21.181Z,80.1
2018-03-03T02:39:41.723Z,79.9
2018-03-03T02:40:02.096Z,80
2018-03-03T02:40:23.757Z,79.9
2018-03-03T02:40:44.121Z,80.1
2018-03-03T02:41:04.481Z,80
2018-03-03T02:41:24.746Z,80.1
2018-03-03T02:41:45.089Z,80.3
2018-03-03T02:42:05.453Z,80.2
2018-03-03T02:42:25.987Z,80.2
2018-03-03T02:42:46.322Z,80.2
2018-03-03T02:43:06.716Z,80.2
2018-03-03T02:43:27.310Z,81
2018-03-03T02:43:47.632Z,80.6
2018-03-03T02:44:08.099Z,80.9
2018-03-03T02:44:28.389Z,80.9
2018-03-03T02:44:48.679Z,80.7
2018-03-03T02:45:08.939Z,80.4
2018-03-03T02:45:29.415Z,80.5
2018-03-03T02:45:49.808Z,80.5
2018-03-03T02:46:10.150Z,80.6
2018-03-03T02:46:30.527Z,80.6
2018-03-03T02:46:50.947Z,80.5
2018-03-03T02:47:11.954Z,80.7
2018-03-03T02:47:32.434Z,80.8
2018-03-03T02:47:52.676Z,81
2018-03-03T02:48:13.036Z,81.2
2018-03-03T02:48:33.332Z,81
2018-03-03T02:48:53.627Z,80.8
2018-03-03T02:49:13.964Z,80.7
2018-03-03T02:49:34.355Z,81.3
2018-03-03T02:49:54.738Z,81.4
2018-03-03T02:50:15.149Z,81.2
2018-03-03T02:50:35.456Z,81.4
2018-03-03T02:50:55.881Z,81.4
2018-03-03T02:51:16.157Z,81.6
2018-03-03T02:51:36.509Z,81.5
2018-03-03T02:51:56.814Z,81.2
2018-03-03T02:52:17.227Z,81.1
2018-03-03T02:52:37.564Z,81.3
2018-03-03T02:52:57.846Z,81.3
2018-03-03T02:53:18.223Z,81.3
2018-03-03T02:53:38.516Z,81.2
2018-03-03T02:53:58.962Z,81.2
2018-03-03T02:54:19.480Z,81.2
2018-03-03T02:54:39.824Z,81.3
2018-03-03T02:55:00.289Z,81.4
2018-03-03T02:55:20.644Z,81.4
2018-03-03T02:55:41.115Z,81.4
2018-03-03T02:56:01.393Z,81.7
2018-03-03T02:56:21.752Z,81.9
2018-03-03T02:56:42.102Z,81.8
2018-03-03T02:57:02.414Z,81.8
2018-03-03T02:57:22.836Z,81.6
2018-03-03T02:57:43.189Z,81.6
2018-03-03T02:58:03.510Z,81.6
2018-03-03T02:58:23.861Z,82
2018-03-03T02:58:44.294Z,81.7
2018-03-03T02:59:04.554Z,81.6
2018-03-03T02:59:24.904Z,81.7
2018-03-03T02:59:45.354Z,82.2
2018-03-03T03:00:05.724Z,82
2018-03-03T03:00:26.034Z,82.5
2018-03-03T03:00:46.352Z,82.5
2018-03-03T03:01:06.751Z,82.3
2018-03-03T03:01:27.178Z,82.1
2018-03-03T03:01:47.663Z,82.1
2018-03-03T03:02:08.030Z,82
2018-03-03T03:02:28.378Z,82.4
2018-03-03T03:02:48.814Z,82.4
2018-03-03T03:03:09.215Z,82
2018-03-03T03:03:29.615Z,82
2018-03-03T03:03:50.003Z,82.2
2018-03-03T03:04:10.473Z,82.3
2018-03-03T03:04:30.804Z,82.4
2018-03-03T03:04:51.174Z,82.1
2018-03-03T03:05:11.639Z,82.3
2018-03-03T03:05:32.041Z,82.2
2018-03-03T03:05:52.479Z,82.4
2018-03-03T03:06:12.924Z,82.5
2018-03-03T03:06:33.394Z,83.2
2018-03-03T03:06:53.793Z,83
2018-03-03T03:07:14.318Z,83.1
2018-03-03T03:07:34.759Z,82.9
2018-03-03T03:07:55.060Z,82.9
2018-03-03T03:08:15.392Z,83.1
2018-03-03T03:08:35.845Z,82.9
2018-03-03T03:08:56.180Z,83.1
2018-03-03T03:09:16.456Z,83.2
2018-03-03T03:09:36.812Z,83.1
2018-03-03T03:09:57.286Z,83
2018-03-03T03:10:17.589Z,83.2
2018-03-03T03:10:38.045Z,83.1
2018-03-03T03:10:58.338Z,83
2018-03-03T03:11:18.791Z,83
2018-03-03T03:11:39.115Z,82.8
2018-03-03T03:11:59.440Z,83.1
2018-03-03T03:12:20.011Z,82.7
2018-03-03T03:12:40.322Z,83
2018-03-03T03:13:00.731Z,83
2018-03-03T03:13:21.092Z,82.8
2018-03-03T03:13:41.389Z,82.8
2018-03-03T03:14:01.757Z,82.9
2018-03-03T03:14:22.055Z,82.7
2018-03-03T03:14:42.407Z,82.8
2018-03-03T03:15:02.702Z,82.9
2018-03-03T03:15:23.157Z,83.2
2018-03-03T03:15:43.512Z,83.3
2018-03-03T03:16:03.921Z,83.2
2018-03-03T03:16:24.298Z,83.6
2018-03-03T03:16:44.619Z,83.5
2018-03-03T03:17:04.930Z,83.4
2018-03-03T03:17:25.338Z,83.3
2018-03-03T03:17:45.647Z,83.4
2018-03-03T03:18:06.029Z,83.5
2018-03-03T03:18:26.420Z,83.7
2018-03-03T03:18:46.712Z,83.7
2018-03-03T03:19:07.064Z,83.6
2018-03-03T03:19:27.389Z,83.7
2018-03-03T03:19:47.792Z,83.8
2018-03-03T03:20:08.133Z,84.1
2018-03-03T03:20:28.581Z,84
2018-03-03T03:20:49.065Z,83.4
2018-03-03T03:21:09.347Z,83.9
2018-03-03T03:21:29.903Z,84.1
2018-03-03T03:21:50.287Z,83.8
2018-03-03T03:22:10.592Z,83.7
2018-03-03T03:22:30.916Z,83.7
2018-03-03T03:22:51.254Z,83.8
2018-03-03T03:23:11.623Z,83.7
2018-03-03T03:23:32.064Z,84
2018-03-03T03:23:52.346Z,84.1
2018-03-03T03:24:12.805Z,84.1
2018-03-03T03:24:33.168Z,83.9
2018-03-03T03:24:53.514Z,83.7
2018-03-03T03:25:13.773Z,83.9
2018-03-03T03:25:34.056Z,83.9
2018-03-03T03:25:54.495Z,84.1
2018-03-03T03:26:14.840Z,83.5
2018-03-03T03:26:35.374Z,84.2
2018-03-03T03:26:55.713Z,84.1
2018-03-03T03:27:16.062Z,83.7
2018-03-03T03:27:36.395Z,84.4
2018-03-03T03:27:56.855Z,84
2018-03-03T03:28:17.301Z,84.3
2018-03-03T03:28:37.639Z,83.9
2018-03-03T03:28:57.960Z,84.4
2018-03-03T03:29:18.341Z,84.2
2018-03-03T03:29:38.659Z,84.6
2018-03-03T03:29:59.005Z,84.2
2018-03-03T03:30:19.502Z,84.6
2018-03-03T03:30:39.853Z,84.2
2018-03-03T03:31:00.209Z,84.5
2018-03-03T03:31:20.524Z,84.3
2018-03-03T03:31:41.008Z,84.4
2018-03-03T03:32:01.438Z,84
2018-03-03T03:32:21.899Z,84.2
2018-03-03T03:32:42.474Z,84.4
2018-03-03T03:33:02.839Z,84.5
2018-03-03T03:33:23.181Z,84.2
2018-03-03T03:33:43.523Z,83.8
2018-03-03T03:34:03.980Z,83.9
2018-03-03T03:34:24.363Z,83.3
2018-03-03T03:34:44.696Z,83.3
2018-03-03T03:35:05.000Z,83.4
2018-03-03T03:35:25.291Z,83.2
2018-03-03T03:35:45.583Z,83.1
2018-03-03T03:36:05.897Z,82.8
2018-03-03T03:36:26.284Z,82.9
2018-03-03T03:36:46.546Z,83.3
2018-03-03T03:37:06.792Z,83.4
2018-03-03T03:37:27.070Z,83.3
2018-03-03T03:37:47.422Z,83.7
2018-03-03T03:38:07.697Z,84
2018-03-03T03:38:27.948Z,83.8
2018-03-03T03:38:48.422Z,83.8
2018-03-03T03:39:08.811Z,83.9
2018-03-03T03:39:29.234Z,83.8
2018-03-03T03:39:49.638Z,83.8
2018-03-03T03:40:09.974Z,84.1
2018-03-03T03:40:30.348Z,84
2018-03-03T03:40:50.737Z,84
2018-03-03T03:41:11.264Z,84
2018-03-03T03:41:31.661Z,84
2018-03-03T03:41:52.011Z,83.4
2018-03-03T03:42:12.432Z,83.8
2018-03-03T03:42:32.881Z,83.9
2018-03-03T03:42:53.400Z,83.9
2018-03-03T03:43:13.792Z,83.7
2018-03-03T03:43:34.205Z,83.4
2018-03-03T03:43:54.535Z,83.3
2018-03-03T03:44:14.979Z,83.7
2018-03-03T03:44:35.329Z,83.5
2018-03-03T03:44:55.725Z,83.6
2018-03-03T03:45:16.089Z,83.3
2018-03-03T03:45:36.485Z,83.8
2018-03-03T03:45:56.806Z,83.9
2018-03-03T03:46:17.200Z,83.3
2018-03-03T03:46:37.515Z,83.5
2018-03-03T03:46:58.024Z,83.3
2018-03-03T03:47:18.411Z,83.6
2018-03-03T03:47:38.699Z,83.7
2018-03-03T03:47:58.986Z,84
2018-03-03T03:48:19.420Z,83.9
2018-03-03T03:48:39.800Z,83.7
2018-03-03T03:49:00.216Z,83.9
2018-03-03T03:49:20.628Z,84
2018-03-03T03:49:40.895Z,84
2018-03-03T03:50:01.296Z,83.8
2018-03-03T03:50:21.666Z,83.9
2018-03-03T03:50:42.192Z,84.5
2018-03-03T03:51:02.622Z,84.2
2018-03-03T03:51:22.900Z,84.3
2018-03-03T03:51:43.273Z,83.7
2018-03-03T03:52:03.614Z,84.4
2018-03-03T03:52:23.886Z,84.4
2018-03-03T03:52:44.256Z,84
2018-03-03T03:53:04.542Z,84.3
2018-03-03T03:53:24.881Z,84.3
2018-03-03T03:53:45.209Z,84.2
2018-03-03T03:54:05.650Z,84.6
2018-03-03T03:54:26.108Z,84.6
2018-03-03T03:54:46.533Z,84.6
2018-03-03T03:55:07.054Z,84.2
2018-03-03T03:55:27.638Z,84
2018-03-03T03:55:48.018Z,83.7
2018-03-03T03:56:08.443Z,84.2
2018-03-03T03:56:28.895Z,84.2
2018-03-03T03:56:49.195Z,84.2
2018-03-03T03:57:09.563Z,83.7
2018-03-03T03:57:30.043Z,84.4
2018-03-03T03:57:50.425Z,84.3
2018-03-03T03:58:10.738Z,84.2
2018-03-03T03:58:31.277Z,84.3
2018-03-03T03:58:51.542Z,84.1
2018-03-03T03:59:12.026Z,84.3
2018-03-03T03:59:32.426Z,84.3
2018-03-03T03:59:52.803Z,84.4
2018-03-03T04:00:13.102Z,84.2
2018-03-03T04:00:33.424Z,84.6
2018-03-03T04:00:53.720Z,84.6
2018-03-03T04:01:14.068Z,84.9
2018-03-03T04:01:34.431Z,84.9
2018-03-03T04:01:54.759Z,84.9
2018-03-03T04:02:15.123Z,85
2018-03-03T04:02:35.527Z,84.8
2018-03-03T04:02:55.825Z,84.7
2018-03-03T04:03:16.069Z,84.4
2018-03-03T04:03:36.345Z,84.9
2018-03-03T04:03:56.673Z,84.8
2018-03-03T04:04:17.066Z,84.9
2018-03-03T04:04:37.418Z,84.9
2018-03-03T04:04:57.715Z,84.7
2018-03-03T04:05:17.993Z,84.9
2018-03-03T04:05:38.306Z,84.7
2018-03-03T04:05:58.722Z,84.7
2018-03-03T04:06:19.110Z,84.9
2018-03-03T04:06:39.471Z,85
2018-03-03T04:06:59.872Z,84.8
2018-03-03T04:07:20.349Z,85.1
2018-03-03T04:07:40.751Z,85.2
2018-03-03T04:08:01.238Z,85.4
2018-03-03T04:08:21.677Z,85.2
2018-03-03T04:08:42.090Z,85.1
2018-03-03T04:09:02.512Z,84.8
2018-03-03T04:09:22.875Z,85.2
2018-03-03T04:09:43.224Z,84.9
2018-03-03T04:10:03.586Z,84.9
2018-03-03T04:10:23.883Z,84.6
2018-03-03T04:10:44.238Z,84.9
2018-03-03T04:11:04.624Z,84.9
2018-03-03T04:11:24.988Z,85.1
2018-03-03T04:11:45.328Z,85.2
2018-03-03T04:12:05.682Z,85.4
2018-03-03T04:12:26.167Z,85.4
2018-03-03T04:12:46.520Z,85.3
2018-03-03T04:13:06.847Z,86.1
2018-03-03T04:13:27.222Z,85.7
2018-03-03T04:13:47.584Z,85.6
2018-03-03T04:14:08.016Z,85.6
2018-03-03T04:14:28.057Z,85.6
2018-03-03T04:14:48.411Z,85.8
2018-03-03T04:15:08.846Z,85.9
2018-03-03T04:15:29.232Z,85.6
2018-03-03T04:15:49.617Z,85.8
2018-03-03T04:16:09.999Z,85.5
2018-03-03T04:16:30.601Z,85.8
2018-03-03T04:16:50.916Z,85.9
2018-03-03T04:17:11.458Z,85.6
2018-03-03T04:17:31.811Z,85.6
2018-03-03T04:17:52.210Z,85.9
2018-03-03T04:18:12.485Z,86.1
2018-03-03T04:18:32.877Z,86.6
2018-03-03T04:18:53.297Z,86.2
2018-03-03T04:19:13.704Z,86
2018-03-03T04:19:33.968Z,86.3
2018-03-03T04:19:54.372Z,86.6
2018-03-03T04:20:14.876Z,86.8
2018-03-03T04:20:35.433Z,86.9
2018-03-03T04:20:55.765Z,86.9
2018-03-03T04:21:16.131Z,86.9
2018-03-03T04:21:36.489Z,86.7
2018-03-03T04:21:56.974Z,86.5
2018-03-03T04:22:17.398Z,86.8
2018-03-03T04:22:37.784Z,86.7
2018-03-03T04:22:58.373Z,86.4
2018-03-03T04:23:18.801Z,86.1
2018-03-03T04:23:39.256Z,86.5
2018-03-03T04:23:59.611Z,86.1
2018-03-03T04:24:20.056Z,86.1
2018-03-03T04:24:40.364Z,85.7
2018-03-03T04:25:00.856Z,85.7
2018-03-03T04:25:21.265Z,85.9
2018-03-03T04:25:41.564Z,85.3
2018-03-03T04:26:01.651Z,85.5
2018-03-03T04:26:21.898Z,85.1
2018-03-03T04:26:42.318Z,85.1
2018-03-03T04:27:02.726Z,84.8
2018-03-03T04:27:23.105Z,84.9
2018-03-03T04:27:43.476Z,84.8
2018-03-03T04:28:03.942Z,84.9
2018-03-03T04:28:24.360Z,84.9
2018-03-03T04:28:44.672Z,84.9
2018-03-03T04:29:05.115Z,84.9
2018-03-03T04:29:25.507Z,84.9
2018-03-03T04:29:45.871Z,85.1
2018-03-03T04:30:06.265Z,85.3
2018-03-03T04:30:26.883Z,85.4
2018-03-03T04:30:47.283Z,85.6
2018-03-03T04:31:07.623Z,85.4
2018-03-03T04:31:28.041Z,85.3
2018-03-03T04:31:48.412Z,85.4
2018-03-03T04:32:08.753Z,85.3
2018-03-03T04:32:29.113Z,85.2
2018-03-03T04:32:49.547Z,86
2018-03-03T04:33:09.939Z,85.7